sensor_id;sensor_type;location;lat;lon;timestamp;P1;durP1;ratioP1;P2;durP2;ratioP2
53644;SDS011;39547;45.554;12.068;2023-04-20T00:03:43;11.63;;;3.53;;
53644;SDS011;39547;45.554;12.068;2023-04-20T00:09:44;11.98;;;3.95;;
53644;SDS011;39547;45.554;12.068;2023-04-20T00:15:46;12.27;;;4.10;;
53644;SDS011;39547;45.554;12.068;2023-04-20T00:21:47;12.07;;;3.45;;
53644;SDS011;39547;45.554;12.068;2023-04-20T00:27:49;13.35;;;4.70;;
53644;SDS011;39547;45.554;12.068;2023-04-20T00:33:51;12.65;;;4.10;;
53644;SDS011;39547;45.554;12.068;2023-04-20T00:39:53;12.60;;;4.00;;
53644;SDS011;39547;45.554;12.068;2023-04-20T00:45:55;11.77;;;3.65;;
53644;SDS011;39547;45.554;12.068;2023-04-20T00:51:57;11.02;;;3.30;;
53644;SDS011;39547;45.554;12.068;2023-04-20T00:57:59;11.38;;;3.70;;
53644;SDS011;39547;45.554;12.068;2023-04-20T01:04:01;12.20;;;3.90;;
53644;SDS011;39547;45.554;12.068;2023-04-20T01:10:04;11.25;;;3.78;;
53644;SDS011;39547;45.554;12.068;2023-04-20T01:16:06;11.68;;;3.72;;
53644;SDS011;39547;45.554;12.068;2023-04-20T01:22:12;10.68;;;3.38;;
53644;SDS011;39547;45.554;12.068;2023-04-20T01:28:18;11.68;;;3.63;;
53644;SDS011;39547;45.554;12.068;2023-04-20T01:34:20;12.27;;;3.75;;
53644;SDS011;39547;45.554;12.068;2023-04-20T01:40:21;11.50;;;3.90;;
53644;SDS011;39547;45.554;12.068;2023-04-20T01:46:23;11.35;;;3.72;;
53644;SDS011;39547;45.554;12.068;2023-04-20T01:52:25;11.38;;;3.78;;
53644;SDS011;39547;45.554;12.068;2023-04-20T01:58:26;11.77;;;4.07;;
53644;SDS011;39547;45.554;12.068;2023-04-20T02:04:28;11.63;;;3.83;;
53644;SDS011;39547;45.554;12.068;2023-04-20T02:10:30;11.63;;;3.90;;
53644;SDS011;39547;45.554;12.068;2023-04-20T02:16:32;11.73;;;3.78;;
53644;SDS011;39547;45.554;12.068;2023-04-20T02:22:35;11.60;;;3.90;;
53644;SDS011;39547;45.554;12.068;2023-04-20T02:28:37;11.57;;;3.70;;
53644;SDS011;39547;45.554;12.068;2023-04-20T02:34:39;11.50;;;4.00;;
53644;SDS011;39547;45.554;12.068;2023-04-20T02:40:41;11.82;;;4.10;;
53644;SDS011;39547;45.554;12.068;2023-04-20T02:46:42;12.75;;;4.40;;
53644;SDS011;39547;45.554;12.068;2023-04-20T02:52:44;12.68;;;4.18;;
53644;SDS011;39547;45.554;12.068;2023-04-20T02:58:46;13.00;;;4.40;;
53644;SDS011;39547;45.554;12.068;2023-04-20T03:05:12;12.80;;;4.68;;
53644;SDS011;39547;45.554;12.068;2023-04-20T03:11:17;12.75;;;5.10;;
53644;SDS011;39547;45.554;12.068;2023-04-20T03:17:19;13.40;;;5.30;;
53644;SDS011;39547;45.554;12.068;2023-04-20T03:23:21;12.77;;;4.60;;
53644;SDS011;39547;45.554;12.068;2023-04-20T03:29:24;13.07;;;5.20;;
53644;SDS011;39547;45.554;12.068;2023-04-20T03:35:26;13.40;;;4.47;;
53644;SDS011;39547;45.554;12.068;2023-04-20T03:41:27;13.55;;;4.90;;
53644;SDS011;39547;45.554;12.068;2023-04-20T03:47:29;12.65;;;4.70;;
53644;SDS011;39547;45.554;12.068;2023-04-20T03:53:30;12.95;;;4.90;;
53644;SDS011;39547;45.554;12.068;2023-04-20T03:59:32;13.75;;;5.22;;
53644;SDS011;39547;45.554;12.068;2023-04-20T04:05:36;14.40;;;5.80;;
53644;SDS011;39547;45.554;12.068;2023-04-20T04:11:38;12.88;;;4.90;;
53644;SDS011;39547;45.554;12.068;2023-04-20T04:17:40;13.30;;;5.00;;
53644;SDS011;39547;45.554;12.068;2023-04-20T04:23:41;14.02;;;5.10;;
53644;SDS011;39547;45.554;12.068;2023-04-20T04:29:50;13.77;;;4.93;;
53644;SDS011;39547;45.554;12.068;2023-04-20T04:35:54;13.95;;;5.57;;
53644;SDS011;39547;45.554;12.068;2023-04-20T04:41:56;13.77;;;5.63;;
53644;SDS011;39547;45.554;12.068;2023-04-20T04:48:07;14.13;;;5.60;;
53644;SDS011;39547;45.554;12.068;2023-04-20T04:54:11;14.30;;;5.82;;
53644;SDS011;39547;45.554;12.068;2023-04-20T05:00:13;13.18;;;5.00;;
53644;SDS011;39547;45.554;12.068;2023-04-20T05:06:15;12.02;;;4.38;;
53644;SDS011;39547;45.554;12.068;2023-04-20T05:12:17;14.45;;;5.60;;
53644;SDS011;39547;45.554;12.068;2023-04-20T05:18:19;12.60;;;4.53;;
53644;SDS011;39547;45.554;12.068;2023-04-20T05:24:20;13.63;;;5.50;;
53644;SDS011;39547;45.554;12.068;2023-04-20T05:30:21;13.05;;;5.07;;
53644;SDS011;39547;45.554;12.068;2023-04-20T05:36:23;13.50;;;5.65;;
53644;SDS011;39547;45.554;12.068;2023-04-20T05:42:25;14.32;;;5.88;;
53644;SDS011;39547;45.554;12.068;2023-04-20T05:48:26;13.23;;;5.35;;
53644;SDS011;39547;45.554;12.068;2023-04-20T05:54:27;14.10;;;6.10;;
53644;SDS011;39547;45.554;12.068;2023-04-20T06:00:29;13.90;;;5.55;;
53644;SDS011;39547;45.554;12.068;2023-04-20T06:06:31;15.88;;;6.15;;
53644;SDS011;39547;45.554;12.068;2023-04-20T06:12:32;13.38;;;5.50;;
53644;SDS011;39547;45.554;12.068;2023-04-20T06:18:34;15.43;;;7.03;;
53644;SDS011;39547;45.554;12.068;2023-04-20T06:24:38;13.30;;;5.00;;
53644;SDS011;39547;45.554;12.068;2023-04-20T06:30:42;12.93;;;5.27;;
53644;SDS011;39547;45.554;12.068;2023-04-20T06:36:43;13.95;;;5.68;;
53644;SDS011;39547;45.554;12.068;2023-04-20T06:42:44;14.82;;;5.90;;
53644;SDS011;39547;45.554;12.068;2023-04-20T06:48:46;14.48;;;5.32;;
53644;SDS011;39547;45.554;12.068;2023-04-20T06:54:47;12.65;;;5.00;;
53644;SDS011;39547;45.554;12.068;2023-04-20T07:00:49;12.60;;;4.80;;
53644;SDS011;39547;45.554;12.068;2023-04-20T07:06:52;13.18;;;5.13;;
53644;SDS011;39547;45.554;12.068;2023-04-20T07:12:53;15.35;;;6.07;;
53644;SDS011;39547;45.554;12.068;2023-04-20T07:18:55;16.83;;;7.78;;
53644;SDS011;39547;45.554;12.068;2023-04-20T07:24:56;14.65;;;6.30;;
53644;SDS011;39547;45.554;12.068;2023-04-20T07:30:58;14.40;;;6.07;;
53644;SDS011;39547;45.554;12.068;2023-04-20T07:37:00;14.60;;;6.47;;
53644;SDS011;39547;45.554;12.068;2023-04-20T07:43:01;14.20;;;6.38;;
53644;SDS011;39547;45.554;12.068;2023-04-20T07:49:02;14.23;;;6.10;;
53644;SDS011;39547;45.554;12.068;2023-04-20T07:55:04;15.93;;;6.70;;
53644;SDS011;39547;45.554;12.068;2023-04-20T08:01:07;16.05;;;6.88;;
53644;SDS011;39547;45.554;12.068;2023-04-20T08:07:09;14.35;;;5.90;;
53644;SDS011;39547;45.554;12.068;2023-04-20T08:13:11;14.15;;;5.95;;
53644;SDS011;39547;45.554;12.068;2023-04-20T08:19:13;17.95;;;8.00;;
53644;SDS011;39547;45.554;12.068;2023-04-20T08:25:14;15.85;;;7.20;;
53644;SDS011;39547;45.554;12.068;2023-04-20T08:31:16;16.75;;;8.02;;
53644;SDS011;39547;45.554;12.068;2023-04-20T08:37:17;16.98;;;8.05;;
53644;SDS011;39547;45.554;12.068;2023-04-20T08:43:19;17.00;;;8.70;;
53644;SDS011;39547;45.554;12.068;2023-04-20T08:49:21;15.88;;;7.47;;
53644;SDS011;39547;45.554;12.068;2023-04-20T08:55:23;18.42;;;9.15;;
53644;SDS011;39547;45.554;12.068;2023-04-20T09:01:27;18.83;;;8.88;;
53644;SDS011;39547;45.554;12.068;2023-04-20T09:07:29;16.55;;;7.35;;
53644;SDS011;39547;45.554;12.068;2023-04-20T09:13:31;14.88;;;6.68;;
53644;SDS011;39547;45.554;12.068;2023-04-20T09:19:33;14.85;;;7.05;;
53644;SDS011;39547;45.554;12.068;2023-04-20T09:25:35;17.92;;;8.45;;
53644;SDS011;39547;45.554;12.068;2023-04-20T09:31:36;16.30;;;8.00;;
53644;SDS011;39547;45.554;12.068;2023-04-20T09:37:45;15.63;;;7.65;;
53644;SDS011;39547;45.554;12.068;2023-04-20T09:43:48;16.02;;;7.47;;
53644;SDS011;39547;45.554;12.068;2023-04-20T09:49:50;15.75;;;7.60;;
53644;SDS011;39547;45.554;12.068;2023-04-20T09:55:52;14.90;;;6.32;;
53644;SDS011;39547;45.554;12.068;2023-04-20T10:01:53;18.05;;;8.68;;
53644;SDS011;39547;45.554;12.068;2023-04-20T10:07:58;15.32;;;7.32;;
53644;SDS011;39547;45.554;12.068;2023-04-20T10:20:22;14.23;;;6.13;;
53644;SDS011;39547;45.554;12.068;2023-04-20T10:26:38;14.82;;;6.90;;
53644;SDS011;39547;45.554;12.068;2023-04-20T10:32:42;14.38;;;6.57;;
53644;SDS011;39547;45.554;12.068;2023-04-20T10:38:43;15.70;;;7.40;;
53644;SDS011;39547;45.554;12.068;2023-04-20T10:44:48;15.93;;;7.38;;
53644;SDS011;39547;45.554;12.068;2023-04-20T10:50:51;16.15;;;7.70;;
53644;SDS011;39547;45.554;12.068;2023-04-20T10:56:52;16.50;;;7.38;;
53644;SDS011;39547;45.554;12.068;2023-04-20T11:02:54;15.65;;;6.97;;
53644;SDS011;39547;45.554;12.068;2023-04-20T11:08:56;14.02;;;5.88;;
53644;SDS011;39547;45.554;12.068;2023-04-20T11:14:58;15.32;;;6.65;;
53644;SDS011;39547;45.554;12.068;2023-04-20T11:21:02;15.82;;;7.30;;
53644;SDS011;39547;45.554;12.068;2023-04-20T11:27:04;14.95;;;6.25;;
53644;SDS011;39547;45.554;12.068;2023-04-20T11:33:05;14.75;;;6.72;;
53644;SDS011;39547;45.554;12.068;2023-04-20T11:39:07;14.73;;;6.43;;
53644;SDS011;39547;45.554;12.068;2023-04-20T11:45:09;14.20;;;6.30;;
53644;SDS011;39547;45.554;12.068;2023-04-20T11:51:14;15.35;;;6.93;;
53644;SDS011;39547;45.554;12.068;2023-04-20T11:57:15;14.63;;;6.65;;
53644;SDS011;39547;45.554;12.068;2023-04-20T12:03:17;15.18;;;6.82;;
53644;SDS011;39547;45.554;12.068;2023-04-20T12:09:18;14.68;;;6.93;;
53644;SDS011;39547;45.554;12.068;2023-04-20T12:15:20;15.90;;;7.38;;
53644;SDS011;39547;45.554;12.068;2023-04-20T12:21:21;15.13;;;7.00;;
53644;SDS011;39547;45.554;12.068;2023-04-20T12:27:23;16.25;;;7.13;;
53644;SDS011;39547;45.554;12.068;2023-04-20T12:33:25;17.20;;;8.00;;
53644;SDS011;39547;45.554;12.068;2023-04-20T12:39:26;16.73;;;7.78;;
53644;SDS011;39547;45.554;12.068;2023-04-20T12:45:28;15.00;;;6.93;;
53644;SDS011;39547;45.554;12.068;2023-04-20T12:51:29;15.50;;;6.57;;
53644;SDS011;39547;45.554;12.068;2023-04-20T12:57:32;15.73;;;7.22;;
53644;SDS011;39547;45.554;12.068;2023-04-20T13:03:33;15.18;;;7.28;;
53644;SDS011;39547;45.554;12.068;2023-04-20T13:09:35;15.90;;;7.65;;
53644;SDS011;39547;45.554;12.068;2023-04-20T13:15:36;16.88;;;8.25;;
53644;SDS011;39547;45.554;12.068;2023-04-20T13:21:38;16.17;;;7.22;;
53644;SDS011;39547;45.554;12.068;2023-04-20T13:27:56;16.58;;;7.43;;
53644;SDS011;39547;45.554;12.068;2023-04-20T13:33:58;15.20;;;7.15;;
53644;SDS011;39547;45.554;12.068;2023-04-20T13:39:59;16.65;;;7.80;;
53644;SDS011;39547;45.554;12.068;2023-04-20T13:46:01;16.17;;;7.60;;
53644;SDS011;39547;45.554;12.068;2023-04-20T13:52:03;15.27;;;6.65;;
53644;SDS011;39547;45.554;12.068;2023-04-20T13:58:04;14.95;;;6.75;;
53644;SDS011;39547;45.554;12.068;2023-04-20T14:04:07;14.75;;;6.88;;
53644;SDS011;39547;45.554;12.068;2023-04-20T14:10:09;14.53;;;6.37;;
53644;SDS011;39547;45.554;12.068;2023-04-20T14:16:11;15.50;;;6.72;;
53644;SDS011;39547;45.554;12.068;2023-04-20T14:22:14;15.52;;;6.90;;
53644;SDS011;39547;45.554;12.068;2023-04-20T14:28:16;15.05;;;6.18;;
53644;SDS011;39547;45.554;12.068;2023-04-20T14:34:17;14.40;;;6.30;;
53644;SDS011;39547;45.554;12.068;2023-04-20T14:40:19;14.35;;;5.80;;
53644;SDS011;39547;45.554;12.068;2023-04-20T14:46:20;15.40;;;6.78;;
53644;SDS011;39547;45.554;12.068;2023-04-20T14:52:21;15.48;;;7.15;;
53644;SDS011;39547;45.554;12.068;2023-04-20T14:58:23;14.13;;;5.60;;
53644;SDS011;39547;45.554;12.068;2023-04-20T15:04:24;13.48;;;5.28;;
53644;SDS011;39547;45.554;12.068;2023-04-20T15:10:26;15.02;;;6.63;;
53644;SDS011;39547;45.554;12.068;2023-04-20T15:16:27;15.73;;;7.00;;
53644;SDS011;39547;45.554;12.068;2023-04-20T15:22:29;15.50;;;7.32;;
53644;SDS011;39547;45.554;12.068;2023-04-20T15:28:30;14.07;;;6.10;;
53644;SDS011;39547;45.554;12.068;2023-04-20T15:34:32;13.32;;;5.32;;
53644;SDS011;39547;45.554;12.068;2023-04-20T15:40:33;14.02;;;5.60;;
53644;SDS011;39547;45.554;12.068;2023-04-20T15:46:36;13.65;;;5.93;;
53644;SDS011;39547;45.554;12.068;2023-04-20T15:52:42;14.45;;;5.88;;
53644;SDS011;39547;45.554;12.068;2023-04-20T15:58:44;14.07;;;5.90;;
53644;SDS011;39547;45.554;12.068;2023-04-20T16:04:45;15.38;;;6.50;;
53644;SDS011;39547;45.554;12.068;2023-04-20T16:10:47;15.23;;;6.43;;
53644;SDS011;39547;45.554;12.068;2023-04-20T16:16:48;14.60;;;6.35;;
53644;SDS011;39547;45.554;12.068;2023-04-20T16:22:50;13.52;;;5.60;;
53644;SDS011;39547;45.554;12.068;2023-04-20T16:28:52;13.63;;;5.93;;
53644;SDS011;39547;45.554;12.068;2023-04-20T16:34:53;13.50;;;5.32;;
53644;SDS011;39547;45.554;12.068;2023-04-20T16:40:55;12.95;;;5.30;;
53644;SDS011;39547;45.554;12.068;2023-04-20T16:46:56;12.98;;;4.75;;
53644;SDS011;39547;45.554;12.068;2023-04-20T16:52:58;12.27;;;4.57;;
53644;SDS011;39547;45.554;12.068;2023-04-20T16:59:00;12.57;;;4.20;;
53644;SDS011;39547;45.554;12.068;2023-04-20T17:05:02;11.82;;;4.00;;
53644;SDS011;39547;45.554;12.068;2023-04-20T17:11:04;12.55;;;3.70;;
53644;SDS011;39547;45.554;12.068;2023-04-20T17:17:06;11.27;;;3.88;;
53644;SDS011;39547;45.554;12.068;2023-04-20T17:23:07;12.00;;;4.00;;
53644;SDS011;39547;45.554;12.068;2023-04-20T17:29:09;11.35;;;3.65;;
53644;SDS011;39547;45.554;12.068;2023-04-20T17:35:10;11.90;;;3.92;;
53644;SDS011;39547;45.554;12.068;2023-04-20T17:41:12;11.63;;;4.13;;
53644;SDS011;39547;45.554;12.068;2023-04-20T17:47:13;11.27;;;3.65;;
53644;SDS011;39547;45.554;12.068;2023-04-20T17:53:14;12.10;;;4.10;;
53644;SDS011;39547;45.554;12.068;2023-04-20T17:59:16;11.77;;;3.70;;
53644;SDS011;39547;45.554;12.068;2023-04-20T18:05:18;11.20;;;3.67;;
53644;SDS011;39547;45.554;12.068;2023-04-20T18:11:19;11.57;;;4.13;;
53644;SDS011;39547;45.554;12.068;2023-04-20T18:17:21;12.63;;;4.32;;
53644;SDS011;39547;45.554;12.068;2023-04-20T18:23:22;11.55;;;4.00;;
53644;SDS011;39547;45.554;12.068;2023-04-20T18:29:24;14.20;;;5.00;;
53644;SDS011;39547;45.554;12.068;2023-04-20T18:35:26;12.10;;;4.32;;
53644;SDS011;39547;45.554;12.068;2023-04-20T18:41:27;13.88;;;4.90;;
53644;SDS011;39547;45.554;12.068;2023-04-20T18:47:29;13.52;;;4.65;;
53644;SDS011;39547;45.554;12.068;2023-04-20T18:53:30;14.77;;;4.72;;
53644;SDS011;39547;45.554;12.068;2023-04-20T18:59:34;12.35;;;4.30;;
53644;SDS011;39547;45.554;12.068;2023-04-20T19:05:35;13.88;;;5.35;;
53644;SDS011;39547;45.554;12.068;2023-04-20T19:11:37;15.23;;;5.78;;
53644;SDS011;39547;45.554;12.068;2023-04-20T19:17:39;15.02;;;6.65;;
53644;SDS011;39547;45.554;12.068;2023-04-20T19:23:42;15.15;;;6.30;;
53644;SDS011;39547;45.554;12.068;2023-04-20T19:29:44;15.35;;;6.93;;
53644;SDS011;39547;45.554;12.068;2023-04-20T19:35:45;16.75;;;7.75;;
53644;SDS011;39547;45.554;12.068;2023-04-20T19:41:50;15.00;;;6.70;;
53644;SDS011;39547;45.554;12.068;2023-04-20T19:47:52;13.43;;;5.72;;
53644;SDS011;39547;45.554;12.068;2023-04-20T19:53:53;14.95;;;6.82;;
53644;SDS011;39547;45.554;12.068;2023-04-20T19:59:56;13.88;;;5.93;;
53644;SDS011;39547;45.554;12.068;2023-04-20T20:05:59;13.70;;;6.13;;
53644;SDS011;39547;45.554;12.068;2023-04-20T20:12:01;16.45;;;7.00;;
53644;SDS011;39547;45.554;12.068;2023-04-20T20:18:04;13.55;;;5.45;;
53644;SDS011;39547;45.554;12.068;2023-04-20T20:24:06;12.82;;;5.18;;
53644;SDS011;39547;45.554;12.068;2023-04-20T20:30:08;13.77;;;5.60;;
53644;SDS011;39547;45.554;12.068;2023-04-20T20:36:10;13.25;;;5.80;;
53644;SDS011;39547;45.554;12.068;2023-04-20T20:42:11;13.80;;;5.65;;
53644;SDS011;39547;45.554;12.068;2023-04-20T20:48:15;13.30;;;5.73;;
53644;SDS011;39547;45.554;12.068;2023-04-20T20:54:16;14.07;;;6.10;;
53644;SDS011;39547;45.554;12.068;2023-04-20T21:00:18;14.63;;;6.20;;
53644;SDS011;39547;45.554;12.068;2023-04-20T21:06:20;14.48;;;6.25;;
53644;SDS011;39547;45.554;12.068;2023-04-20T21:12:21;15.20;;;6.13;;
53644;SDS011;39547;45.554;12.068;2023-04-20T21:18:22;14.27;;;6.35;;
53644;SDS011;39547;45.554;12.068;2023-04-20T21:24:24;15.38;;;6.97;;
53644;SDS011;39547;45.554;12.068;2023-04-20T21:30:25;15.90;;;7.85;;
53644;SDS011;39547;45.554;12.068;2023-04-20T21:36:28;16.42;;;7.93;;
53644;SDS011;39547;45.554;12.068;2023-04-20T21:42:29;15.98;;;8.10;;
53644;SDS011;39547;45.554;12.068;2023-04-20T21:48:30;16.40;;;7.97;;
53644;SDS011;39547;45.554;12.068;2023-04-20T21:54:32;16.70;;;7.93;;
53644;SDS011;39547;45.554;12.068;2023-04-20T22:00:33;16.10;;;7.68;;
53644;SDS011;39547;45.554;12.068;2023-04-20T22:06:35;22.35;;;11.60;;
53644;SDS011;39547;45.554;12.068;2023-04-20T22:12:36;19.08;;;10.10;;
53644;SDS011;39547;45.554;12.068;2023-04-20T22:18:40;21.92;;;11.57;;
53644;SDS011;39547;45.554;12.068;2023-04-20T22:24:42;20.42;;;11.05;;
53644;SDS011;39547;45.554;12.068;2023-04-20T22:30:44;21.25;;;10.90;;
53644;SDS011;39547;45.554;12.068;2023-04-20T22:36:45;18.10;;;9.88;;
53644;SDS011;39547;45.554;12.068;2023-04-20T22:42:47;17.35;;;8.60;;
53644;SDS011;39547;45.554;12.068;2023-04-20T22:48:48;21.15;;;11.15;;
53644;SDS011;39547;45.554;12.068;2023-04-20T22:54:50;19.98;;;10.32;;
53644;SDS011;39547;45.554;12.068;2023-04-20T23:00:52;23.42;;;12.80;;
53644;SDS011;39547;45.554;12.068;2023-04-20T23:06:53;18.45;;;10.25;;
53644;SDS011;39547;45.554;12.068;2023-04-20T23:12:56;20.83;;;11.32;;
53644;SDS011;39547;45.554;12.068;2023-04-20T23:18:57;19.92;;;11.45;;
53644;SDS011;39547;45.554;12.068;2023-04-20T23:24:59;20.20;;;10.50;;
53644;SDS011;39547;45.554;12.068;2023-04-20T23:31:00;20.30;;;10.50;;
53644;SDS011;39547;45.554;12.068;2023-04-20T23:37:02;20.33;;;10.18;;
53644;SDS011;39547;45.554;12.068;2023-04-20T23:43:03;19.70;;;10.57;;
53644;SDS011;39547;45.554;12.068;2023-04-20T23:49:05;20.95;;;10.02;;
53644;SDS011;39547;45.554;12.068;2023-04-20T23:55:07;19.55;;;10.30;;
